Time;durP1;ratioP1;P1;durP2;ratioP2;P2;SDS_P1;SDS_P2;PMS_P1;PMS_P2;Temp;Humidity;BMP_temperature;BMP_pressure;BME280_temperature;BME280_humidity;BME280_pressure;Samples;Min_cycle;Max_cycle;Signal;HPM_P1;HPM_P2
2023/11/30 00:00:07;;;;;;;9.47;7.27;;;;;;;3.58;74.96;93151.16;521491;28;3858;-70
2023/11/30 00:00:22;;;;;;;9.20;7.22;;;;;;;3.58;75.49;93151.88;520552;28;3816;-70
2023/11/30 00:00:38;;;;;;;8.77;7.47;;;;;;;3.59;75.07;93153.38;521228;28;3920;-70
2023/11/30 00:00:53;;;;;;;8.57;7.67;;;;;;;3.59;75.37;93156.13;520851;28;2292;-70
2023/11/30 00:01:09;;;;;;;8.70;7.72;;;;;;;3.59;75.27;93152.63;520641;28;3331;-70
2023/11/30 00:01:24;;;;;;;8.90;7.70;;;;;;;3.58;75.18;93151.16;520772;28;2724;-70
2023/11/30 00:01:40;;;;;;;9.13;7.53;;;;;;;3.57;74.88;93155.13;520857;28;3475;-70
2023/11/30 00:01:55;;;;;;;9.13;7.27;;;;;;;3.53;75.15;93147.22;521192;28;3299;-70
2023/11/30 00:02:11;;;;;;;9.25;7.55;;;;;;;3.59;75.20;93158.09;521553;28;3309;-70
2023/11/30 00:02:26;;;;;;;9.43;7.90;;;;;;;3.58;74.80;93149.16;522993;28;2245;-70
2023/11/30 00:02:41;;;;;;;8.80;7.50;;;;;;;3.59;75.39;93149.91;523153;28;2385;-70
2023/11/30 00:02:57;;;;;;;8.43;7.45;;;;;;;3.59;74.64;93153.38;522973;28;3614;-70
2023/11/30 00:03:12;;;;;;;8.50;7.57;;;;;;;3.60;74.92;93154.09;523663;28;2550;-70
2023/11/30 00:03:28;;;;;;;8.25;7.30;;;;;;;3.59;74.92;93152.63;521360;28;3868;-70
2023/11/30 00:03:43;;;;;;;8.20;7.13;;;;;;;3.57;74.68;93158.59;520973;28;3344;-70
2023/11/30 00:03:59;;;;;;;7.90;6.82;;;;;;;3.57;74.66;93152.41;520918;28;3370;-70
2023/11/30 00:04:14;;;;;;;8.13;6.67;;;;;;;3.55;75.15;93155.63;522450;28;3437;-70
2023/11/30 00:04:29;;;;;;;9.17;7.17;;;;;;;3.55;74.72;93152.19;522536;28;3967;-70
2023/11/30 00:04:45;;;;;;;10.48;7.53;;;;;;;3.54;75.13;93161.59;522978;28;2365;-70
2023/11/30 00:05:02;;;;;;;10.70;7.43;;;;;;;3.28;75.22;93120.41;520804;28;3059;-69
2023/11/30 00:05:18;;;;;;;9.05;7.15;;;;;;;3.52;74.77;93155.91;521095;28;2005;-70
2023/11/30 00:05:33;;;;;;;9.00;7.50;;;;;;;3.50;75.29;93159.16;521127;28;3249;-70
2023/11/30 00:05:49;;;;;;;8.98;7.60;;;;;;;3.50;75.12;93156.44;520859;28;2210;-70
2023/11/30 00:06:04;;;;;;;8.97;7.00;;;;;;;3.43;75.13;93157.00;522439;28;3834;-70
2023/11/30 00:06:20;;;;;;;8.60;6.68;;;;;;;3.44;74.83;93155.75;520650;28;3066;-70
2023/11/30 00:06:39;;;;;;;8.43;6.80;;;;;;;3.45;74.73;93159.19;520800;28;3885;-70
2023/11/30 00:06:55;;;;;;;10.55;7.90;;;;;;;3.46;74.72;93160.69;520908;28;3396;-70
2023/11/30 00:07:12;;;;;;;12.90;8.75;;;;;;;3.19;74.44;93124.22;520991;28;3336;-70
2023/11/30 00:07:27;;;;;;;12.25;8.48;;;;;;;3.44;74.82;93161.22;518476;28;2426;-70
2023/11/30 00:07:43;;;;;;;11.60;8.07;;;;;;;3.44;74.91;93161.22;518801;28;2139;-69
2023/11/30 00:07:58;;;;;;;12.30;8.67;;;;;;;3.45;74.63;93161.94;519865;28;4176;-70
2023/11/30 00:08:14;;;;;;;12.88;9.25;;;;;;;3.44;74.75;93161.22;521483;28;3177;-70
2023/11/30 00:08:29;;;;;;;12.90;9.30;;;;;;;3.46;74.69;93161.44;521004;28;3448;-70
2023/11/30 00:08:45;;;;;;;12.43;9.10;;;;;;;3.46;74.23;93163.44;521938;28;3080;-70
2023/11/30 00:09:00;;;;;;;11.00;8.47;;;;;;;3.42;74.25;93166.41;522111;28;3457;-70
2023/11/30 00:09:16;;;;;;;12.40;9.13;;;;;;;3.38;74.28;93163.22;522377;28;3480;-70
2023/11/30 00:09:31;;;;;;;16.07;11.27;;;;;;;3.38;74.40;93162.50;522898;28;3519;-70
2023/11/30 00:09:47;;;;;;;17.65;12.00;;;;;;;3.38;74.54;93170.69;523690;28;3126;-70
2023/11/30 00:10:03;;;;;;;18.20;11.43;;;;;;;3.38;74.72;93162.50;522676;28;3922;-70
2023/11/30 00:10:18;;;;;;;19.92;11.82;;;;;;;3.37;74.79;93163.75;520258;28;1809;-70
2023/11/30 00:10:34;;;;;;;18.23;11.88;;;;;;;3.29;74.21;93160.09;520861;28;2374;-70
2023/11/30 00:10:49;;;;;;;16.57;10.30;;;;;;;3.29;74.74;93163.53;521290;28;3030;-70
2023/11/30 00:11:06;;;;;;;20.00;11.90;;;;;;;3.24;74.93;93174.50;521271;28;3325;-70
2023/11/30 00:11:21;;;;;;;19.45;12.70;;;;;;;3.24;74.78;93164.34;518700;28;3256;-70
2023/11/30 00:11:37;;;;;;;16.30;11.60;;;;;;;3.21;74.94;93164.59;518635;28;3185;-70
2023/11/30 00:11:52;;;;;;;15.93;11.07;;;;;;;3.21;75.29;93164.59;518878;28;3666;-70
2023/11/30 00:12:08;;;;;;;15.32;10.85;;;;;;;3.19;75.19;93167.84;518481;28;3851;-70
2023/11/30 00:12:23;;;;;;;15.93;11.60;;;;;;;3.14;75.39;93165.19;520849;28;3148;-70
2023/11/30 00:12:39;;;;;;;14.88;10.70;;;;;;;3.12;74.55;93164.94;523622;28;3436;-70
2023/11/30 00:12:54;;;;;;;11.83;9.17;;;;;;;3.07;75.05;93161.72;523548;28;3063;-70
2023/11/30 00:13:09;;;;;;;10.85;8.70;;;;;;;3.10;75.12;93162.72;523275;28;3230;-70
2023/11/30 00:13:25;;;;;;;10.57;8.13;;;;;;;3.09;74.67;93158.53;522327;28;3087;-70
2023/11/30 00:13:40;;;;;;;10.95;8.50;;;;;;;3.11;74.91;93160.72;523555;28;2230;-71
2023/11/30 00:13:56;;;;;;;10.20;8.40;;;;;;;3.10;75.13;93162.00;523552;28;3177;-70
2023/11/30 00:14:11;;;;;;;9.80;7.70;;;;;;;3.09;75.57;93161.25;522323;28;3592;-70
2023/11/30 00:14:27;;;;;;;10.00;7.80;;;;;;;3.06;75.07;93164.97;522948;28;3258;-70
2023/11/30 00:14:42;;;;;;;9.43;7.63;;;;;;;2.98;75.28;93161.31;523687;28;2312;-70
2023/11/30 00:14:58;;;;;;;9.63;8.20;;;;;;;2.95;75.38;93154.16;521209;28;3733;-70
2023/11/30 00:15:14;;;;;;;10.65;8.48;;;;;;;2.93;75.37;93154.66;523015;28;2245;-70
2023/11/30 00:15:29;;;;;;;10.60;7.97;;;;;;;2.93;75.93;93162.84;523338;28;2687;-70
2023/11/30 00:15:45;;;;;;;10.70;8.35;;;;;;;2.95;75.83;93167.78;521582;28;3301;-70
2023/11/30 00:16:00;;;;;;;11.47;8.40;;;;;;;2.95;75.33;93157.63;520639;28;3906;-70
2023/11/30 00:16:16;;;;;;;10.73;7.78;;;;;;;2.98;75.83;93164.06;520604;28;3030;-70
2023/11/30 00:16:31;;;;;;;9.30;7.37;;;;;;;2.94;75.52;93161.59;520602;28;3429;-70
2023/11/30 00:16:46;;;;;;;8.10;6.82;;;;;;;2.98;75.69;93164.06;523089;28;2872;-70
2023/11/30 00:17:02;;;;;;;8.70;7.10;;;;;;;2.98;75.58;93156.63;522787;28;3365;-70
2023/11/30 00:17:17;;;;;;;11.90;8.48;;;;;;;3.00;75.60;93167.75;522119;28;2233;-70
2023/11/30 00:17:33;;;;;;;13.87;9.40;;;;;;;2.97;75.37;93157.09;520886;28;3428;-70
2023/11/30 00:17:48;;;;;;;12.60;9.10;;;;;;;2.94;75.31;93158.88;521368;28;2274;-70
2023/11/30 00:18:04;;;;;;;11.07;8.60;;;;;;;2.91;75.44;93162.59;521094;28;3384;-70
2023/11/30 00:18:19;;;;;;;10.40;8.38;;;;;;;2.94;75.83;93160.84;520451;28;3917;-70
2023/11/30 00:18:35;;;;;;;11.77;8.87;;;;;;;2.90;75.55;93163.13;521033;28;2454;-70
2023/11/30 00:18:50;;;;;;;14.32;9.63;;;;;;;2.89;75.47;93156.91;522725;28;3615;-70
2023/11/30 00:19:06;;;;;;;17.40;10.83;;;;;;;2.90;75.33;93160.41;522356;28;3444;-70
2023/11/30 00:19:21;;;;;;;18.97;11.93;;;;;;;2.71;75.91;93135.72;522893;28;3887;-70
2023/11/30 00:19:37;;;;;;;21.88;14.07;;;;;;;2.87;75.77;93162.16;521680;28;2335;-70
2023/11/30 00:19:52;;;;;;;23.83;15.25;;;;;;;2.88;75.82;93162.88;523153;28;3295;-70
2023/11/30 00:20:10;;;;;;;21.27;13.10;;;;;;;2.87;75.80;93162.16;523367;28;2171;-70
2023/11/30 00:20:26;;;;;;;15.20;10.70;;;;;;;2.86;75.69;93163.38;522135;28;3070;-70
2023/11/30 00:20:41;;;;;;;14.17;10.87;;;;;;;2.85;76.17;93161.16;521220;28;3619;-70
2023/11/30 00:20:57;;;;;;;14.68;11.20;;;;;;;2.85;75.28;93152.97;521919;28;2345;-70
2023/11/30 00:21:12;;;;;;;15.90;11.20;;;;;;;2.80;76.20;93151.03;520385;28;3245;-70
2023/11/30 00:21:27;;;;;;;15.43;10.60;;;;;;;2.77;75.88;93160.22;521459;28;3820;-70
2023/11/30 00:21:43;;;;;;;14.27;10.03;;;;;;;2.74;75.86;93161.97;521147;28;2308;-70
2023/11/30 00:21:58;;;;;;;12.93;9.40;;;;;;;2.72;76.36;93156.28;522005;28;3085;-70
2023/11/30 00:22:14;;;;;;;11.47;8.83;;;;;;;2.45;76.19;93119.03;522883;28;3074;-70
2023/11/30 00:22:29;;;;;;;10.75;8.52;;;;;;;2.72;76.87;93152.81;522629;28;3522;-70
2023/11/30 00:22:46;;;;;;;12.20;8.90;;;;;;;2.72;75.92;93161.75;523272;28;3541;-70
2023/11/30 00:23:02;;;;;;;11.90;8.95;;;;;;;2.69;76.57;93153.81;523884;28;3385;-70
2023/11/30 00:23:17;;;;;;;10.80;8.45;;;;;;;2.72;76.00;93153.56;522746;28;3905;-70
2023/11/30 00:23:34;;;;;;;10.23;8.30;;;;;;;2.67;76.64;93159.03;522864;28;1929;-70
2023/11/30 00:23:50;;;;;;;9.27;8.20;;;;;;;2.65;76.88;93161.53;520652;28;3296;-70
2023/11/30 00:24:05;;;;;;;9.55;8.20;;;;;;;2.65;76.48;93158.81;521978;28;3516;-70
2023/11/30 00:24:21;;;;;;;9.90;7.97;;;;;;;2.65;76.60;93165.00;520359;28;2365;-70
2023/11/30 00:24:36;;;;;;;10.40;7.88;;;;;;;2.66;76.28;93161.03;522245;28;3274;-71
2023/11/30 00:24:52;;;;;;;10.50;8.07;;;;;;;2.67;76.47;93157.06;523323;28;4216;-70
2023/11/30 00:25:08;;;;;;;9.65;7.80;;;;;;;2.68;76.78;93152.34;523410;28;2067;-70
2023/11/30 00:25:23;;;;;;;9.33;7.70;;;;;;;2.68;76.85;93161.28;522564;28;3456;-70
2023/11/30 00:25:39;;;;;;;8.80;7.65;;;;;;;2.68;76.64;93152.34;521381;28;3196;-70
2023/11/30 00:25:54;;;;;;;8.30;7.13;;;;;;;2.68;76.32;93160.53;520455;28;3108;-70
2023/11/30 00:26:09;;;;;;;9.88;7.85;;;;;;;2.68;76.49;93153.09;521694;28;2620;-70
2023/11/30 00:26:25;;;;;;;9.90;8.30;;;;;;;2.66;76.72;93158.31;520122;28;2686;-70
2023/11/30 00:26:42;;;;;;;9.30;7.90;;;;;;;2.64;77.32;93163.50;520960;28;1814;-70
2023/11/30 00:26:57;;;;;;;10.15;8.18;;;;;;;2.62;77.03;93163.28;524047;28;3307;-70
2023/11/30 00:27:13;;;;;;;9.90;8.43;;;;;;;2.63;77.02;93164.03;522861;28;3871;-70
2023/11/30 00:27:28;;;;;;;10.45;8.93;;;;;;;2.60;77.10;93165.03;522059;28;3450;-70
2023/11/30 00:27:44;;;;;;;11.20;9.37;;;;;;;2.61;76.63;93169.97;521847;28;3517;-70
2023/11/30 00:27:59;;;;;;;12.27;10.02;;;;;;;2.60;76.90;93156.88;522094;28;2517;-70
2023/11/30 00:28:15;;;;;;;11.90;10.10;;;;;;;2.58;76.88;93162.09;520767;28;3132;-70
2023/11/30 00:28:30;;;;;;;11.15;9.65;;;;;;;2.55;77.17;93161.09;520677;28;3351;-70
2023/11/30 00:28:46;;;;;;;12.00;9.30;;;;;;;2.50;77.06;93170.03;520743;28;2145;-70
2023/11/30 00:29:01;;;;;;;12.20;9.37;;;;;;;2.47;77.81;93171.03;521041;28;1872;-70
2023/11/30 00:29:16;;;;;;;13.13;10.30;;;;;;;2.45;77.63;93165.34;521114;28;1854;-70
2023/11/30 00:29:32;;;;;;;15.10;10.70;;;;;;;2.44;77.64;93171.31;522720;28;3407;-70
2023/11/30 00:29:47;;;;;;;14.68;10.45;;;;;;;2.44;77.75;93177.50;523377;28;2603;-70
2023/11/30 00:30:03;;;;;;;13.30;10.00;;;;;;;2.38;78.10;93168.63;523293;28;4540;-70
2023/11/30 00:30:18;;;;;;;14.90;10.27;;;;;;;2.36;78.03;93179.25;522409;28;3856;-70
2023/11/30 00:30:34;;;;;;;14.63;10.17;;;;;;;2.35;78.35;93175.06;521458;28;3173;-70
2023/11/30 00:30:49;;;;;;;12.65;9.65;;;;;;;2.36;78.24;93175.81;522115;28;2539;-70
2023/11/30 00:31:05;;;;;;;12.23;9.73;;;;;;;2.36;77.98;93168.34;520061;28;3556;-70
2023/11/30 00:31:20;;;;;;;13.45;9.50;;;;;;;2.37;78.22;93172.59;520353;28;2485;-70
2023/11/30 00:31:36;;;;;;;12.70;9.20;;;;;;;2.38;78.46;93173.31;520809;28;3548;-70
2023/11/30 00:31:51;;;;;;;11.38;9.55;;;;;;;2.41;78.71;93172.31;521296;28;3920;-70
2023/11/30 00:32:07;;;;;;;12.90;9.50;;;;;;;2.33;78.13;93180.28;523085;28;3856;-70
2023/11/30 00:32:22;;;;;;;11.55;8.55;;;;;;;2.29;78.73;93174.34;522844;28;2208;-70
2023/11/30 00:32:38;;;;;;;10.23;7.90;;;;;;;2.30;78.35;93176.56;522829;28;3099;-70
2023/11/30 00:32:53;;;;;;;11.30;8.10;;;;;;;2.29;78.60;93183.28;523077;28;3131;-70
2023/11/30 00:33:09;;;;;;;11.07;8.53;;;;;;;2.26;78.85;93175.34;523019;28;3479;-70
2023/11/30 00:33:24;;;;;;;11.57;8.82;;;;;;;2.25;79.04;93177.31;522679;28;2227;-70
2023/11/30 00:33:39;;;;;;;12.83;9.30;;;;;;;2.27;78.93;93177.56;521610;28;3346;-70
2023/11/30 00:33:55;;;;;;;13.53;9.40;;;;;;;2.28;79.09;93183.75;522671;28;3496;-70
2023/11/30 00:34:10;;;;;;;13.23;9.20;;;;;;;2.26;79.25;93173.38;523150;28;2423;-70
2023/11/30 00:34:26;;;;;;;12.73;9.57;;;;;;;2.27;78.91;93174.84;522716;28;3072;-70
2023/11/30 00:34:41;;;;;;;12.93;10.02;;;;;;;2.30;79.23;93173.09;523221;28;2231;-70
2023/11/30 00:34:57;;;;;;;13.53;10.00;;;;;;;2.30;79.27;93179.28;522551;28;3168;-70
2023/11/30 00:35:12;;;;;;;13.98;9.93;;;;;;;2.29;79.25;93182.53;522959;28;3094;-70
2023/11/30 00:35:28;;;;;;;13.30;9.60;;;;;;;2.29;78.86;93177.84;521963;28;3080;-70
2023/11/30 00:35:43;;;;;;;11.50;8.60;;;;;;;2.31;79.52;93174.59;521613;28;3390;-70
2023/11/30 00:35:59;;;;;;;10.30;7.90;;;;;;;2.33;79.06;93177.56;520926;28;2753;-70
2023/11/30 00:36:14;;;;;;;9.50;7.57;;;;;;;2.33;79.27;93177.56;520531;28;1909;-70
2023/11/30 00:36:29;;;;;;;8.30;7.13;;;;;;;2.34;78.92;93181.75;521206;28;3346;-70
2023/11/30 00:36:45;;;;;;;8.45;7.18;;;;;;;2.34;79.25;93179.03;521364;28;2057;-70
2023/11/30 00:37:00;;;;;;;9.97;7.80;;;;;;;2.33;79.20;93176.81;521280;28;3376;-70
2023/11/30 00:37:16;;;;;;;10.20;7.47;;;;;;;2.34;78.91;93178.31;520696;28;3190;-70
2023/11/30 00:37:31;;;;;;;8.77;6.95;;;;;;;2.35;78.51;93174.31;521256;28;4312;-70
2023/11/30 00:37:47;;;;;;;7.57;6.83;;;;;;;2.34;79.06;93173.56;521024;28;2362;-70
2023/11/30 00:38:02;;;;;;;7.55;6.82;;;;;;;2.35;79.15;93177.78;521618;28;2259;-70
2023/11/30 00:38:17;;;;;;;8.07;6.70;;;;;;;2.32;79.15;93172.63;522464;28;3349;-70
2023/11/30 00:38:33;;;;;;;8.52;6.68;;;;;;;2.29;79.11;93180.56;523169;28;3271;-70
2023/11/30 00:38:48;;;;;;;8.37;6.80;;;;;;;2.27;79.20;93174.13;523005;28;3069;-70
2023/11/30 00:39:04;;;;;;;9.50;7.80;;;;;;;2.24;79.00;93177.84;523101;28;3532;-70
2023/11/30 00:39:19;;;;;;;12.10;9.30;;;;;;;2.20;79.63;93177.38;522519;28;1863;-70
2023/11/30 00:39:35;;;;;;;11.60;9.05;;;;;;;2.17;79.70;93173.66;523645;28;3546;-70
2023/11/30 00:39:50;;;;;;;11.33;8.90;;;;;;;2.14;79.42;93177.38;521099;28;2354;-70
2023/11/30 00:40:06;;;;;;;12.50;9.03;;;;;;;2.15;79.90;93178.13;521759;28;3221;-70
2023/11/30 00:40:22;;;;;;;13.52;9.05;;;;;;;2.15;79.81;93173.41;520635;28;2226;-70
2023/11/30 00:40:40;;;;;;;11.98;8.60;;;;;;;2.15;79.65;93178.13;521283;28;3149;-70
2023/11/30 00:40:55;;;;;;;9.13;7.45;;;;;;;2.16;79.40;93174.91;522949;28;2043;-70
2023/11/30 00:41:14;;;;;;;9.97;7.20;;;;;;;2.17;79.57;93178.34;521777;28;3936;-70
2023/11/30 00:41:30;;;;;;;8.98;6.95;;;;;;;2.17;79.18;93175.63;521102;28;3328;-70
2023/11/30 00:41:45;;;;;;;8.38;6.68;;;;;;;2.17;79.42;93175.63;521806;28;3203;-70
2023/11/30 00:42:00;;;;;;;9.60;6.93;;;;;;;2.18;79.48;93171.69;523696;28;1851;-70
2023/11/30 00:42:16;;;;;;;9.55;6.85;;;;;;;2.16;79.84;93176.88;520023;28;3105;-70
2023/11/30 00:42:31;;;;;;;10.23;7.00;;;;;;;2.17;79.99;93176.38;520113;28;2220;-70
2023/11/30 00:42:47;;;;;;;9.23;6.70;;;;;;;2.16;79.89;93172.19;517949;28;4110;-70
2023/11/30 00:43:02;;;;;;;8.93;6.70;;;;;;;2.17;79.64;93176.38;518349;28;1807;-70
2023/11/30 00:43:18;;;;;;;9.70;7.07;;;;;;;2.20;79.96;93177.38;517497;28;3776;-70
2023/11/30 00:43:33;;;;;;;8.98;6.72;;;;;;;2.22;80.00;93174.88;521084;28;3052;-70
2023/11/30 00:43:49;;;;;;;9.60;7.10;;;;;;;2.24;79.80;93181.31;519869;28;3494;-70
2023/11/30 00:44:04;;;;;;;9.43;7.22;;;;;;;2.26;79.59;93178.06;519883;28;4138;-70
2023/11/30 00:44:21;;;;;;;7.90;6.50;;;;;;;2.27;79.92;93183.00;520631;28;3295;-70
2023/11/30 00:44:36;;;;;;;7.88;6.55;;;;;;;2.25;79.57;93182.78;522889;28;3204;-71
2023/11/30 00:44:51;;;;;;;8.90;6.97;;;;;;;2.25;80.06;93182.78;523550;28;4025;-71
2023/11/30 00:45:08;;;;;;;9.02;7.30;;;;;;;2.27;79.54;93183.00;523132;28;3368;-70
2023/11/30 00:45:23;;;;;;;9.60;7.57;;;;;;;2.29;79.77;93179.81;522461;28;3874;-70
2023/11/30 00:45:39;;;;;;;10.20;7.28;;;;;;;2.32;79.91;93178.06;523040;28;3126;-70
2023/11/30 00:45:54;;;;;;;9.73;7.33;;;;;;;2.33;79.82;93188.44;523448;28;3447;-70
2023/11/30 00:46:14;;;;;;;8.98;7.53;;;;;;;2.35;79.86;93185.97;518331;28;3268;-70
2023/11/30 00:46:29;;;;;;;8.80;7.68;;;;;;;2.37;79.62;93180.00;519085;28;3175;-69
2023/11/30 00:46:45;;;;;;;8.88;7.90;;;;;;;2.38;80.12;93184.22;518836;28;3415;-70
2023/11/30 00:47:00;;;;;;;8.73;7.53;;;;;;;2.39;79.74;93186.44;520968;28;2253;-70
2023/11/30 00:47:16;;;;;;;8.27;7.30;;;;;;;2.41;79.52;93186.69;519889;28;3142;-70
2023/11/30 00:47:31;;;;;;;9.60;7.70;;;;;;;2.43;79.46;93188.88;518945;28;3176;-70
2023/11/30 00:47:47;;;;;;;10.25;7.70;;;;;;;2.43;79.29;93186.91;518105;28;2641;-70
2023/11/30 00:48:02;;;;;;;9.10;7.57;;;;;;;2.45;80.02;93189.16;521619;28;3437;-70
2023/11/30 00:48:18;;;;;;;9.20;7.97;;;;;;;2.47;79.63;93184.66;522230;28;3851;-70
2023/11/30 00:48:33;;;;;;;9.63;7.93;;;;;;;2.49;80.38;93189.63;523281;28;2283;-70
2023/11/30 00:48:48;;;;;;;10.30;7.93;;;;;;;2.51;79.93;93178.97;522428;28;2008;-70
2023/11/30 00:49:04;;;;;;;10.88;8.45;;;;;;;2.53;79.97;93187.38;523645;28;3081;-70
2023/11/30 00:49:19;;;;;;;10.30;7.93;;;;;;;2.55;79.72;93185.63;522594;28;3185;-70
2023/11/30 00:49:35;;;;;;;9.90;7.47;;;;;;;2.56;79.59;93187.09;521904;28;1772;-70
2023/11/30 00:49:50;;;;;;;10.07;7.77;;;;;;;2.57;79.67;93185.88;520524;28;2932;-70
2023/11/30 00:50:06;;;;;;;10.20;8.05;;;;;;;2.58;79.95;93187.34;521363;28;2831;-70
2023/11/30 00:50:22;;;;;;;9.60;8.07;;;;;;;2.59;79.35;93188.06;520690;28;2918;-71
2023/11/30 00:50:37;;;;;;;9.80;7.70;;;;;;;2.61;79.46;93191.78;522207;28;2280;-70
2023/11/30 00:50:53;;;;;;;10.00;7.45;;;;;;;2.59;79.47;93183.38;521428;28;3278;-70
2023/11/30 00:51:09;;;;;;;9.83;7.53;;;;;;;2.41;79.70;93148.53;523326;28;1789;-70
2023/11/30 00:51:28;;;;;;;10.48;7.43;;;;;;;2.65;79.61;93192.25;520437;28;1868;-70
2023/11/30 00:51:44;;;;;;;10.90;7.82;;;;;;;2.67;79.27;93189.03;521173;28;1830;-70
2023/11/30 00:51:59;;;;;;;11.10;8.23;;;;;;;2.67;79.16;93186.28;523394;28;3524;-70
2023/11/30 00:52:14;;;;;;;10.75;7.97;;;;;;;2.67;79.18;93183.56;522940;28;3766;-70
2023/11/30 00:52:30;;;;;;;10.83;8.33;;;;;;;2.66;79.28;93184.81;523212;28;3290;-70
2023/11/30 00:52:45;;;;;;;10.93;8.23;;;;;;;2.68;79.14;93190.50;522875;28;2995;-70
2023/11/30 00:53:01;;;;;;;11.93;8.50;;;;;;;2.68;79.29;93183.09;523523;28;3307;-70
2023/11/30 00:53:16;;;;;;;12.40;8.73;;;;;;;2.71;79.13;93186.75;520830;28;2039;-70
2023/11/30 00:53:32;;;;;;;11.55;8.70;;;;;;;2.71;78.44;93195.69;522432;28;3333;-70
2023/11/30 00:53:47;;;;;;;11.17;9.30;;;;;;;2.72;79.36;93189.00;522621;28;3344;-70
2023/11/30 00:54:03;;;;;;;10.93;9.15;;;;;;;2.73;78.96;93187.03;522929;28;3963;-70
2023/11/30 00:54:18;;;;;;;12.07;9.87;;;;;;;2.74;78.62;93191.97;522854;28;3289;-70
2023/11/30 00:54:34;;;;;;;12.50;10.15;;;;;;;2.74;79.20;93189.25;523335;28;3780;-70
2023/11/30 00:54:49;;;;;;;12.23;9.73;;;;;;;2.75;78.47;93185.25;523254;28;3014;-70
2023/11/30 00:55:05;;;;;;;11.90;9.68;;;;;;;2.78;78.52;93188.97;521298;28;3283;-70
2023/11/30 00:55:20;;;;;;;12.68;10.13;;;;;;;2.78;78.85;93192.44;520964;28;3180;-70
2023/11/30 00:55:36;;;;;;;14.90;10.80;;;;;;;2.79;79.15;93190.44;521048;28;3844;-70
2023/11/30 00:55:51;;;;;;;15.13;10.80;;;;;;;2.80;79.03;93192.66;520298;28;1759;-70
2023/11/30 00:56:10;;;;;;;13.80;10.50;;;;;;;2.78;78.26;93200.59;520961;28;3356;-70
2023/11/30 00:56:25;;;;;;;14.98;11.32;;;;;;;2.81;78.75;93188.72;521995;28;4085;-70
2023/11/30 00:56:41;;;;;;;16.80;11.93;;;;;;;2.83;78.38;93185.47;523117;28;3372;-70
2023/11/30 00:56:56;;;;;;;14.93;11.27;;;;;;;2.84;78.61;93186.94;523543;28;3796;-70
2023/11/30 00:57:12;;;;;;;15.60;11.57;;;;;;;2.85;78.49;93194.63;522160;28;3188;-70
2023/11/30 00:57:27;;;;;;;16.73;12.03;;;;;;;2.87;78.34;93191.38;523440;28;2128;-70
2023/11/30 00:57:43;;;;;;;17.95;12.48;;;;;;;2.87;78.24;93192.13;523295;28;3763;-70
2023/11/30 00:57:58;;;;;;;17.98;12.25;;;;;;;2.88;78.27;93190.88;522889;28;3475;-70
2023/11/30 00:58:14;;;;;;;15.63;11.40;;;;;;;2.88;78.84;93190.88;522687;28;3440;-70
2023/11/30 00:58:29;;;;;;;15.07;10.97;;;;;;;2.90;78.29;93190.38;523300;28;3323;-70
2023/11/30 00:58:45;;;;;;;14.82;10.85;;;;;;;2.89;79.01;93192.38;523376;28;4144;-71
2023/11/30 00:59:00;;;;;;;14.70;10.77;;;;;;;2.91;78.51;93189.88;523228;28;2959;-69
2023/11/30 00:59:16;;;;;;;12.60;10.07;;;;;;;2.91;77.94;93198.06;520872;28;3172;-70
2023/11/30 00:59:31;;;;;;;13.13;10.03;;;;;;;2.91;78.61;93194.56;521546;28;2571;-70
2023/11/30 00:59:46;;;;;;;14.50;10.10;;;;;;;2.92;78.71;93190.63;520826;28;3098;-70
2023/11/30 01:00:04;;;;;;;12.70;9.03;;;;;;;2.91;78.51;93195.31;521036;28;3124;-70
2023/11/30 01:00:21;;;;;;;11.20;8.38;;;;;;;2.93;78.34;93192.09;522055;28;3523;-69
2023/11/30 01:00:36;;;;;;;10.63;8.23;;;;;;;2.93;78.38;93195.56;523605;28;3189;-70
2023/11/30 01:00:52;;;;;;;9.60;7.65;;;;;;;2.92;78.11;93196.06;520054;28;3291;-69
2023/11/30 01:01:07;;;;;;;9.20;7.03;;;;;;;2.92;78.11;93196.78;521423;28;2184;-71
2023/11/30 01:01:23;;;;;;;9.85;7.10;;;;;;;2.92;78.58;93198.81;519876;28;3216;-70
2023/11/30 01:01:38;;;;;;;9.23;7.00;;;;;;;2.91;78.21;93192.59;521358;28;3305;-69
2023/11/30 01:01:53;;;;;;;9.80;7.38;;;;;;;2.92;78.33;93204.97;520847;28;3190;-70
2023/11/30 01:02:09;;;;;;;11.03;7.17;;;;;;;2.90;78.58;93199.28;521029;28;2692;-70
2023/11/30 01:02:24;;;;;;;11.10;6.95;;;;;;;2.91;78.42;93205.50;520407;28;2190;-70
2023/11/30 01:02:40;;;;;;;10.20;7.40;;;;;;;2.90;77.90;93196.56;521754;28;3085;-70
2023/11/30 01:02:55;;;;;;;8.95;7.25;;;;;;;2.92;78.01;93206.97;522270;28;3126;-70
2023/11/30 01:03:11;;;;;;;8.10;7.00;;;;;;;2.91;78.04;93198.06;523459;28;3161;-70
2023/11/30 01:03:26;;;;;;;7.90;6.67;;;;;;;2.94;78.56;93196.31;522287;28;2688;-70
2023/11/30 01:03:41;;;;;;;8.13;6.57;;;;;;;2.86;78.20;93190.63;523754;28;2201;-70
2023/11/30 01:03:57;;;;;;;8.43;6.77;;;;;;;2.95;77.75;93203.97;520352;28;3497;-70
2023/11/30 01:04:12;;;;;;;9.00;6.82;;;;;;;2.97;77.74;93201.47;520813;28;3369;-70
2023/11/30 01:04:28;;;;;;;9.53;7.40;;;;;;;2.98;77.71;93202.97;521143;28;3455;-70
2023/11/30 01:04:43;;;;;;;9.02;7.25;;;;;;;2.97;77.61;93206.94;522326;28;3419;-70
2023/11/30 01:04:59;;;;;;;9.37;7.37;;;;;;;2.97;77.22;93212.38;521062;28;3505;-70
2023/11/30 01:05:14;;;;;;;10.07;7.90;;;;;;;2.95;77.95;93205.94;520578;28;2251;-70
2023/11/30 01:05:29;;;;;;;9.25;7.43;;;;;;;2.96;77.17;93202.00;520697;28;3459;-70
2023/11/30 01:05:45;;;;;;;9.00;7.37;;;;;;;2.94;77.31;93207.97;521277;28;3453;-70
2023/11/30 01:06:00;;;;;;;10.30;7.60;;;;;;;2.92;77.69;93204.97;521276;28;2412;-70
2023/11/30 01:06:16;;;;;;;10.03;7.70;;;;;;;2.92;76.86;93210.44;521807;28;3700;-70
2023/11/30 01:06:31;;;;;;;9.85;7.95;;;;;;;2.92;77.25;93210.44;520411;28;3109;-70
2023/11/30 01:06:48;;;;;;;10.30;7.83;;;;;;;2.92;77.20;93204.25;521777;28;3297;-70
2023/11/30 01:07:04;;;;;;;9.80;7.90;;;;;;;2.92;77.79;93204.97;522685;28;3120;-70
2023/11/30 01:07:19;;;;;;;11.00;8.27;;;;;;;2.94;76.79;93207.97;523318;28;2248;-69
2023/11/30 01:07:38;;;;;;;10.73;8.35;;;;;;;2.95;77.76;93203.97;521658;28;1936;-70
2023/11/30 01:07:53;;;;;;;9.73;8.25;;;;;;;2.91;77.46;93208.22;522562;28;2183;-70
2023/11/30 01:08:08;;;;;;;9.27;8.02;;;;;;;2.89;77.50;93211.44;522046;28;3449;-70
2023/11/30 01:08:24;;;;;;;9.87;8.20;;;;;;;2.89;77.28;93199.81;520012;28;3267;-70
2023/11/30 01:08:39;;;;;;;10.25;8.57;;;;;;;2.90;77.24;93210.19;520279;28;2356;-70
2023/11/30 01:08:55;;;;;;;10.83;9.43;;;;;;;2.91;77.08;93206.22;521593;28;3219;-70
2023/11/30 01:09:10;;;;;;;11.85;10.15;;;;;;;2.91;77.90;93206.22;519450;28;3188;-70
2023/11/30 01:09:26;;;;;;;12.87;10.73;;;;;;;2.93;77.21;93206.47;520818;28;3082;-70
2023/11/30 01:09:41;;;;;;;13.98;10.52;;;;;;;2.94;76.90;93209.94;521060;28;3150;-70
2023/11/30 01:09:56;;;;;;;14.30;9.90;;;;;;;2.94;77.36;93207.97;521506;28;3434;-70
2023/11/30 01:10:12;;;;;;;12.53;9.70;;;;;;;2.95;77.10;93203.97;520458;28;3373;-70
2023/11/30 01:10:27;;;;;;;12.45;9.82;;;;;;;2.97;77.13;93206.19;522795;28;2295;-70
2023/11/30 01:10:44;;;;;;;14.13;9.93;;;;;;;2.99;77.22;93209.16;522636;28;3920;-70
2023/11/30 01:11:02;;;;;;;15.23;9.80;;;;;;;3.00;77.05;93211.38;523782;28;1798;-70
2023/11/30 01:11:17;;;;;;;13.07;9.55;;;;;;;3.02;76.76;93210.88;522410;28;2870;-70
2023/11/30 01:11:33;;;;;;;12.43;9.87;;;;;;;3.02;77.17;93214.34;522466;28;2015;-70
2023/11/30 01:11:48;;;;;;;13.87;10.10;;;;;;;3.04;77.21;93211.84;523187;28;3292;-69
2023/11/30 01:12:04;;;;;;;12.90;9.83;;;;;;;3.05;77.11;93210.59;523310;28;3433;-70
2023/11/30 01:12:20;;;;;;;10.50;9.23;;;;;;;3.07;76.68;93212.84;521030;28;3469;-71
2023/11/30 01:12:35;;;;;;;11.32;9.15;;;;;;;3.08;77.04;93208.84;520312;28;2356;-71
2023/11/30 01:12:50;;;;;;;12.03;9.07;;;;;;;3.08;76.53;93215.03;521677;28;3536;-71
2023/11/30 01:13:06;;;;;;;11.80;9.13;;;;;;;3.08;76.67;93214.31;520461;28;2084;-70
2023/11/30 01:13:22;;;;;;;12.77;9.23;;;;;;;3.08;76.34;93209.59;521396;28;3908;-70
2023/11/30 01:13:37;;;;;;;13.48;9.43;;;;;;;3.08;76.76;93209.59;520744;28;2255;-70
2023/11/30 01:13:52;;;;;;;11.40;8.90;;;;;;;3.08;77.02;93215.03;520674;28;3465;-70
2023/11/30 01:14:08;;;;;;;9.77;8.30;;;;;;;3.08;77.03;93217.03;521403;28;3648;-70
2023/11/30 01:14:23;;;;;;;11.27;8.45;;;;;;;3.07;76.86;93210.81;520715;28;3111;-70
2023/11/30 01:14:40;;;;;;;11.00;8.00;;;;;;;3.08;76.50;93223.22;521180;28;2255;-70
2023/11/30 01:14:56;;;;;;;11.27;8.30;;;;;;;3.07;76.19;93216.28;520530;28;4196;-70
2023/11/30 01:15:11;;;;;;;10.40;8.40;;;;;;;3.07;77.30;93212.84;521363;28;1988;-71
2023/11/30 01:15:27;;;;;;;9.93;8.02;;;;;;;3.05;76.59;93220.78;520638;28;2096;-71